Time;durP1;ratioP1;P1;durP2;ratioP2;P2;SDS_P1;SDS_P2;PMS_P1;PMS_P2;Temp;Humidity;BMP_temperature;BMP_pressure;BME280_temperature;BME280_humidity;BME280_pressure;Samples;Min_cycle;Max_cycle;Signal;HPM_P1;HPM_P2
2024/01/05 00:02:27;;;;;;;;;;;4.60;99.90;;;;;;5130483;27;19991;-71
2024/01/05 00:04:53;;;;;;;;;;;4.60;99.90;;;;;;5131096;27;19962;-71
2024/01/05 00:07:21;;;;;;;;;;;4.50;99.90;;;;;;5137510;27;20150;-71
2024/01/05 00:09:48;;;;;;;;;;;4.50;99.90;;;;;;5125048;27;19951;-71
2024/01/05 00:12:14;;;;;;;;;;;4.50;99.90;;;;;;5122625;27;20146;-71
2024/01/05 00:14:41;;;;;;;;;;;4.50;99.90;;;;;;5126458;27;19951;-72
2024/01/05 00:17:07;;;;;;;;;;;4.50;99.90;;;;;;5123806;28;20268;-71
2024/01/05 00:19:35;;;;;;;;;;;4.50;99.90;;;;;;5129609;27;19919;-71
2024/01/05 00:22:02;;;;;;;;;;;4.50;99.90;;;;;;5118381;27;19954;-71
2024/01/05 00:24:29;;;;;;;;;;;4.40;99.90;;;;;;5127489;27;19951;-71
2024/01/05 00:26:55;;;;;;;;;;;4.40;99.90;;;;;;5131434;27;19979;-71
2024/01/05 00:29:22;;;;;;;;;;;4.40;99.90;;;;;;5123717;27;19926;-71
2024/01/05 00:31:48;;;;;;;;;;;4.40;99.90;;;;;;5125935;27;19919;-71
2024/01/05 00:34:15;;;;;;;;;;;4.40;99.90;;;;;;5129460;27;19995;-71
2024/01/05 00:36:43;;;;;;;;;;;4.30;99.90;;;;;;5129410;27;19991;-71
2024/01/05 00:39:10;;;;;;;;;;;4.30;99.90;;;;;;5126525;27;19939;-71
2024/01/05 00:41:36;;;;;;;;;;;4.40;99.90;;;;;;5125769;27;19926;-71
2024/01/05 00:44:03;;;;;;;;;;;4.30;99.90;;;;;;5114959;28;19920;-71
2024/01/05 00:46:30;;;;;;;;;;;4.30;99.90;;;;;;5127472;27;20273;-71
2024/01/05 00:48:57;;;;;;;;;;;4.30;99.90;;;;;;5121676;28;19938;-71
2024/01/05 00:51:23;;;;;;;;;;;4.30;99.90;;;;;;5125090;27;19923;-71
2024/01/05 00:53:51;;;;;;;;;;;4.30;99.90;;;;;;5121177;27;19919;-71
2024/01/05 00:56:18;;;;;;;;;;;4.30;99.90;;;;;;5131178;27;19986;-71
2024/01/05 00:58:44;;;;;;;;;;;4.40;99.90;;;;;;5128420;27;20388;-71
2024/01/05 01:01:11;;;;;;;;;;;4.40;99.90;;;;;;5130249;27;19920;-71
2024/01/05 01:03:38;;;;;;;;;;;4.30;99.90;;;;;;5125055;27;19982;-71
2024/01/05 01:06:05;;;;;;;;;;;4.30;99.90;;;;;;5127841;27;19934;-71
2024/01/05 01:08:31;;;;;;;;;;;4.20;99.90;;;;;;5119341;27;19919;-71
2024/01/05 01:11:00;;;;;;;;;;;4.20;99.90;;;;;;5117400;28;19987;-71
2024/01/05 01:13:27;;;;;;;;;;;4.20;99.90;;;;;;5133106;27;19928;-72
2024/01/05 01:15:53;;;;;;;;;;;4.20;99.90;;;;;;5126616;28;19952;-71
2024/01/05 01:18:20;;;;;;;;;;;4.20;99.90;;;;;;5121641;28;19950;-71
2024/01/05 01:20:46;;;;;;;;;;;4.20;99.90;;;;;;5115276;28;19948;-71
2024/01/05 01:23:13;;;;;;;;;;;4.20;99.90;;;;;;5124978;28;19987;-71
2024/01/05 01:25:40;;;;;;;;;;;4.20;99.90;;;;;;5127057;28;19926;-71
2024/01/05 01:28:08;;;;;;;;;;;4.10;99.90;;;;;;5119280;28;19983;-71
2024/01/05 01:30:35;;;;;;;;;;;4.20;99.90;;;;;;5128497;28;19942;-72
2024/01/05 01:33:02;;;;;;;;;;;4.20;99.90;;;;;;5119304;28;19974;-71
2024/01/05 01:35:28;;;;;;;;;;;4.20;99.90;;;;;;5126077;28;19982;-71
2024/01/05 01:37:55;;;;;;;;;;;4.20;99.90;;;;;;5125523;28;19928;-71
2024/01/05 01:40:21;;;;;;;;;;;4.10;99.90;;;;;;5118447;28;20264;-71
2024/01/05 01:42:49;;;;;;;;;;;4.10;99.90;;;;;;5135362;28;19919;-72
2024/01/05 01:45:17;;;;;;;;;;;4.10;99.90;;;;;;5122163;28;20198;-72
2024/01/05 01:47:44;;;;;;;;;;;4.10;99.90;;;;;;5132149;28;19987;-71
2024/01/05 01:50:11;;;;;;;;;;;4.10;99.90;;;;;;5116847;28;19973;-71
2024/01/05 01:52:38;;;;;;;;;;;4.10;99.90;;;;;;5126629;28;19954;-72
2024/01/05 01:55:06;;;;;;;;;;;4.10;99.90;;;;;;5116831;28;20142;-71
2024/01/05 01:57:33;;;;;;;;;;;4.10;99.90;;;;;;5109228;28;19951;-71
2024/01/05 02:00:00;;;;;;;;;;;4.00;99.90;;;;;;5123450;27;19920;-71
2024/01/05 02:02:28;;;;;;;;;;;4.00;99.90;;;;;;5128408;27;19988;-71
2024/01/05 02:04:56;;;;;;;;;;;4.00;99.90;;;;;;5133092;27;20006;-71
2024/01/05 02:07:22;;;;;;;;;;;4.00;99.90;;;;;;5124410;27;19958;-71
2024/01/05 02:09:49;;;;;;;;;;;4.00;99.90;;;;;;5120268;27;19963;-71
2024/01/05 02:12:16;;;;;;;;;;;4.00;99.90;;;;;;5121768;27;19955;-71
2024/01/05 02:14:42;;;;;;;;;;;3.90;99.90;;;;;;5107444;28;19975;-71
2024/01/05 02:17:24;;;;;;;;;;;3.80;99.90;;;;;;5129949;27;19974;-71
2024/01/05 02:19:52;;;;;;;;;;;3.80;99.90;;;;;;5131650;27;19979;-71
2024/01/05 02:22:20;;;;;;;;;;;3.80;99.90;;;;;;5124774;27;19927;-71
2024/01/05 02:24:48;;;;;;;;;;;3.80;99.90;;;;;;5129654;27;19978;-71
2024/01/05 02:27:15;;;;;;;;;;;3.80;99.90;;;;;;5121796;27;19986;-71
2024/01/05 02:29:41;;;;;;;;;;;3.80;99.90;;;;;;5127644;27;19978;-71
2024/01/05 02:32:08;;;;;;;;;;;3.80;99.90;;;;;;5125097;27;19986;-71
2024/01/05 02:34:34;;;;;;;;;;;3.80;99.90;;;;;;5121843;27;19920;-71
2024/01/05 02:37:01;;;;;;;;;;;3.80;99.90;;;;;;5127159;27;20258;-71
2024/01/05 02:39:28;;;;;;;;;;;3.80;99.90;;;;;;5122421;27;19962;-71
2024/01/05 02:41:56;;;;;;;;;;;3.80;99.90;;;;;;5121244;27;20128;-70
2024/01/05 02:44:22;;;;;;;;;;;3.90;99.90;;;;;;5123677;27;20253;-71
2024/01/05 02:46:49;;;;;;;;;;;3.90;99.90;;;;;;5128585;27;19919;-71
2024/01/05 02:49:16;;;;;;;;;;;4.00;99.90;;;;;;5129058;27;20263;-71
2024/01/05 02:51:42;;;;;;;;;;;4.10;99.90;;;;;;5134194;27;20248;-71
2024/01/05 02:54:09;;;;;;;;;;;4.00;99.90;;;;;;5128315;27;20397;-70
2024/01/05 02:56:36;;;;;;;;;;;4.10;99.90;;;;;;5135326;27;19919;-71
2024/01/05 02:59:05;;;;;;;;;;;4.00;99.90;;;;;;5120551;27;19982;-71
2024/01/05 03:01:31;;;;;;;;;;;4.00;99.90;;;;;;5129002;27;19959;-72
2024/01/05 03:04:00;;;;;;;;;;;4.00;99.90;;;;;;5127750;27;19969;-71
2024/01/05 03:06:27;;;;;;;;;;;4.10;99.90;;;;;;5125362;27;19919;-71
2024/01/05 03:08:52;;;;;;;;;;;4.10;99.90;;;;;;5136917;27;19920;-70
2024/01/05 03:11:19;;;;;;;;;;;4.10;99.90;;;;;;5131417;27;19922;-71
2024/01/05 03:13:46;;;;;;;;;;;4.10;99.90;;;;;;5126264;27;19927;-71
2024/01/05 03:16:14;;;;;;;;;;;4.10;99.90;;;;;;5132211;27;19926;-71
2024/01/05 03:18:40;;;;;;;;;;;4.10;99.90;;;;;;5133439;27;19962;-71
2024/01/05 03:21:07;;;;;;;;;;;4.10;99.90;;;;;;5126395;27;20102;-71
2024/01/05 03:23:34;;;;;;;;;;;4.20;99.90;;;;;;5132809;27;20147;-72
2024/01/05 03:26:01;;;;;;;;;;;4.10;99.90;;;;;;5132832;27;19926;-71
2024/01/05 03:28:27;;;;;;;;;;;4.20;99.90;;;;;;5130175;27;19963;-71
2024/01/05 03:30:54;;;;;;;;;;;4.10;99.90;;;;;;5132782;27;20881;-71
2024/01/05 03:33:22;;;;;;;;;;;4.10;99.90;;;;;;5131957;27;19955;-71
2024/01/05 03:35:49;;;;;;;;;;;4.10;99.90;;;;;;5131277;27;19962;-71
2024/01/05 03:38:16;;;;;;;;;;;4.10;99.90;;;;;;5126406;27;19983;-71
2024/01/05 03:40:42;;;;;;;;;;;4.10;99.90;;;;;;5124289;27;19989;-71
2024/01/05 03:43:09;;;;;;;;;;;4.10;99.90;;;;;;5128083;27;19961;-71
2024/01/05 03:45:36;;;;;;;;;;;4.10;99.90;;;;;;5129034;27;19986;-71
2024/01/05 03:48:03;;;;;;;;;;;4.00;99.90;;;;;;5125517;28;19957;-72
2024/01/05 03:50:31;;;;;;;;;;;4.10;99.90;;;;;;5132684;27;19927;-71
2024/01/05 03:52:57;;;;;;;;;;;4.00;99.90;;;;;;5114193;28;20256;-71
2024/01/05 03:55:24;;;;;;;;;;;4.00;99.90;;;;;;5115804;28;19926;-71
2024/01/05 03:57:50;;;;;;;;;;;4.00;99.90;;;;;;5115284;28;20188;-71
2024/01/05 04:00:17;;;;;;;;;;;4.00;99.90;;;;;;5114222;28;19932;-72
2024/01/05 04:02:44;;;;;;;;;;;4.00;99.90;;;;;;5113607;28;19963;-71
2024/01/05 04:05:11;;;;;;;;;;;4.00;99.90;;;;;;5114370;28;19936;-71
2024/01/05 04:07:39;;;;;;;;;;;4.00;99.90;;;;;;5114234;28;19951;-71
2024/01/05 04:10:06;;;;;;;;;;;3.90;99.90;;;;;;5114760;28;19928;-70
2024/01/05 04:12:33;;;;;;;;;;;3.90;99.90;;;;;;5126246;27;20273;-72
2024/01/05 04:15:00;;;;;;;;;;;3.90;99.90;;;;;;5131935;27;19977;-71
2024/01/05 04:17:26;;;;;;;;;;;3.90;99.90;;;;;;5131783;27;19934;-70
2024/01/05 04:19:53;;;;;;;;;;;3.80;99.90;;;;;;5130815;27;19967;-71
2024/01/05 04:22:19;;;;;;;;;;;3.80;99.90;;;;;;5132721;27;19947;-71
2024/01/05 04:24:47;;;;;;;;;;;3.80;99.90;;;;;;5130221;27;19927;-71
2024/01/05 04:27:14;;;;;;;;;;;3.80;99.90;;;;;;5131908;27;19951;-71
2024/01/05 04:29:41;;;;;;;;;;;3.80;99.90;;;;;;5135127;27;19954;-71
2024/01/05 04:32:07;;;;;;;;;;;3.80;99.90;;;;;;5130799;27;19977;-71
2024/01/05 04:34:34;;;;;;;;;;;3.80;99.90;;;;;;5130840;27;20083;-71
2024/01/05 04:37:00;;;;;;;;;;;3.80;99.90;;;;;;5125268;27;19920;-71
2024/01/05 04:39:27;;;;;;;;;;;3.80;99.90;;;;;;5129317;27;20226;-71
2024/01/05 04:41:55;;;;;;;;;;;3.80;99.90;;;;;;5130260;27;19919;-71
2024/01/05 04:44:22;;;;;;;;;;;3.80;99.90;;;;;;5124737;27;19962;-71
2024/01/05 04:46:48;;;;;;;;;;;3.80;99.90;;;;;;5124676;28;19994;-71
2024/01/05 04:49:15;;;;;;;;;;;3.80;99.90;;;;;;5132249;27;19978;-71
2024/01/05 04:51:41;;;;;;;;;;;3.80;99.90;;;;;;5130840;27;19951;-71
2024/01/05 04:54:08;;;;;;;;;;;3.80;99.90;;;;;;5119139;28;19952;-71
2024/01/05 04:56:35;;;;;;;;;;;3.80;99.90;;;;;;5135196;27;19920;-71
2024/01/05 04:59:03;;;;;;;;;;;3.80;99.90;;;;;;5127493;27;19951;-71
2024/01/05 05:01:29;;;;;;;;;;;3.80;99.90;;;;;;5124000;28;20267;-71
2024/01/05 05:03:56;;;;;;;;;;;3.80;99.90;;;;;;5129061;27;19962;-71
2024/01/05 05:06:22;;;;;;;;;;;3.70;99.90;;;;;;5133524;27;19987;-71
2024/01/05 05:08:49;;;;;;;;;;;3.80;99.90;;;;;;5127493;28;19919;-71
2024/01/05 05:11:16;;;;;;;;;;;3.80;99.90;;;;;;5123735;28;19938;-71
2024/01/05 05:13:42;;;;;;;;;;;3.80;99.90;;;;;;5124403;27;19927;-71
2024/01/05 05:16:10;;;;;;;;;;;3.80;99.90;;;;;;5127366;27;19923;-71
2024/01/05 05:18:37;;;;;;;;;;;3.80;99.90;;;;;;5128537;27;19955;-71
2024/01/05 05:21:04;;;;;;;;;;;3.80;99.90;;;;;;5126353;28;19920;-71
2024/01/05 05:23:31;;;;;;;;;;;3.80;99.90;;;;;;5129577;28;19953;-71
2024/01/05 05:25:57;;;;;;;;;;;3.80;99.90;;;;;;5126618;28;20027;-71
2024/01/05 05:28:24;;;;;;;;;;;3.80;99.90;;;;;;5129025;28;19920;-71
2024/01/05 05:30:51;;;;;;;;;;;3.80;99.90;;;;;;5128113;28;19919;-71
2024/01/05 05:33:19;;;;;;;;;;;3.80;99.90;;;;;;5123525;28;19982;-71
2024/01/05 05:35:46;;;;;;;;;;;3.80;99.90;;;;;;5120126;28;20090;-71
2024/01/05 05:38:12;;;;;;;;;;;3.80;99.90;;;;;;5125390;27;19943;-71
2024/01/05 05:40:39;;;;;;;;;;;3.80;99.90;;;;;;5133461;27;19979;-71
2024/01/05 05:43:05;;;;;;;;;;;3.80;99.90;;;;;;5134464;27;19926;-71
2024/01/05 05:45:32;;;;;;;;;;;3.80;99.90;;;;;;5129519;27;19978;-71
2024/01/05 05:47:59;;;;;;;;;;;3.80;99.90;;;;;;5128245;27;19919;-71
2024/01/05 05:50:27;;;;;;;;;;;3.80;99.90;;;;;;5124039;28;19958;-71
2024/01/05 05:52:54;;;;;;;;;;;3.80;99.90;;;;;;5131273;27;19951;-71
2024/01/05 05:55:20;;;;;;;;;;;3.80;99.90;;;;;;5132434;27;20074;-71
2024/01/05 05:57:47;;;;;;;;;;;3.80;99.90;;;;;;5133892;27;20174;-71
2024/01/05 06:00:14;;;;;;;;;;;3.90;99.90;;;;;;5135559;27;19947;-70
2024/01/05 06:02:41;;;;;;;;;;;3.90;99.90;;;;;;5136865;27;19959;-71
2024/01/05 06:05:08;;;;;;;;;;;3.90;99.90;;;;;;5132393;27;19999;-71
2024/01/05 06:07:36;;;;;;;;;;;3.80;99.90;;;;;;5130738;27;19957;-71
2024/01/05 06:10:04;;;;;;;;;;;3.90;99.90;;;;;;5133083;27;20259;-71
2024/01/05 06:12:30;;;;;;;;;;;3.90;99.90;;;;;;5127328;28;20210;-71
2024/01/05 06:14:57;;;;;;;;;;;3.80;99.90;;;;;;5133106;27;19920;-71
2024/01/05 06:17:24;;;;;;;;;;;3.80;99.90;;;;;;5129630;27;20285;-71
2024/01/05 06:19:50;;;;;;;;;;;3.80;99.90;;;;;;5128145;27;19958;-69
2024/01/05 06:22:17;;;;;;;;;;;3.80;99.90;;;;;;5133609;27;19941;-73
2024/01/05 06:24:46;;;;;;;;;;;3.80;99.90;;;;;;5131981;27;19934;-68
2024/01/05 06:27:12;;;;;;;;;;;3.80;99.90;;;;;;5141458;27;19919;-70
2024/01/05 06:29:39;;;;;;;;;;;3.80;99.90;;;;;;5129029;27;20010;-70
2024/01/05 06:32:06;;;;;;;;;;;3.90;99.90;;;;;;5127469;27;19943;-70
2024/01/05 06:34:32;;;;;;;;;;;3.90;99.90;;;;;;5136514;27;19919;-70
2024/01/05 06:37:00;;;;;;;;;;;3.90;99.90;;;;;;5126443;28;19927;-70
2024/01/05 06:39:26;;;;;;;;;;;3.90;99.90;;;;;;5130076;27;19924;-70
2024/01/05 06:41:54;;;;;;;;;;;3.90;99.90;;;;;;5125869;28;19920;-70
2024/01/05 06:44:21;;;;;;;;;;;3.90;99.90;;;;;;5129740;27;19982;-71
2024/01/05 06:46:50;;;;;;;;;;;3.80;99.90;;;;;;5128555;27;19925;-70
2024/01/05 06:49:17;;;;;;;;;;;3.80;99.90;;;;;;5127322;27;19947;-70
2024/01/05 06:51:44;;;;;;;;;;;3.90;99.90;;;;;;5119517;27;19986;-70
2024/01/05 06:54:11;;;;;;;;;;;3.80;99.90;;;;;;5139685;27;19941;-70
2024/01/05 06:56:38;;;;;;;;;;;3.80;99.90;;;;;;5134445;27;19919;-71
2024/01/05 06:59:06;;;;;;;;;;;3.80;99.90;;;;;;5129662;27;20370;-70
2024/01/05 07:01:33;;;;;;;;;;;3.70;99.90;;;;;;5129364;27;19982;-70
2024/01/05 07:04:00;;;;;;;;;;;3.70;99.90;;;;;;5125319;28;19920;-71
2024/01/05 07:06:26;;;;;;;;;;;3.60;99.90;;;;;;5133767;27;19953;-70
2024/01/05 07:08:53;;;;;;;;;;;3.60;99.90;;;;;;5132988;27;19919;-70
2024/01/05 07:11:21;;;;;;;;;;;3.50;99.90;;;;;;5126469;28;19920;-70
2024/01/05 07:13:47;;;;;;;;;;;3.50;99.90;;;;;;5127011;27;19920;-70
2024/01/05 07:16:19;;;;;;;;;;;3.50;99.90;;;;;;5125884;27;19954;-70
2024/01/05 07:18:46;;;;;;;;;;;3.50;99.90;;;;;;5130197;27;20300;-70
2024/01/05 07:21:13;;;;;;;;;;;3.50;99.90;;;;;;5129255;27;19927;-70
2024/01/05 07:23:39;;;;;;;;;;;3.50;99.90;;;;;;5124305;27;19919;-70
2024/01/05 07:26:06;;;;;;;;;;;3.50;99.90;;;;;;5133698;27;19951;-70
2024/01/05 07:28:33;;;;;;;;;;;3.40;99.90;;;;;;5132990;27;19927;-70
2024/01/05 07:31:03;;;;;;;;;;;3.50;99.90;;;;;;5129535;27;19995;-70
2024/01/05 07:33:31;;;;;;;;;;;3.50;99.90;;;;;;5132385;27;20995;-71
2024/01/05 07:35:58;;;;;;;;;;;3.40;99.90;;;;;;5132257;27;21267;-70
2024/01/05 07:38:24;;;;;;;;;;;3.40;99.90;;;;;;5133406;27;19962;-70
2024/01/05 07:40:51;;;;;;;;;;;3.40;99.90;;;;;;5124906;27;19991;-71
2024/01/05 07:43:17;;;;;;;;;;;3.40;99.90;;;;;;5129268;27;19920;-69
2024/01/05 07:45:44;;;;;;;;;;;3.40;99.90;;;;;;5125063;28;19986;-69
2024/01/05 07:48:11;;;;;;;;;;;3.40;99.90;;;;;;5125279;28;19923;-69
2024/01/05 07:50:39;;;;;;;;;;;3.40;99.90;;;;;;5125386;28;19958;-69
2024/01/05 07:53:06;;;;;;;;;;;3.40;99.90;;;;;;5125297;28;19919;-69
2024/01/05 07:55:32;;;;;;;;;;;3.40;99.90;;;;;;5124350;28;20003;-69
2024/01/05 07:57:59;;;;;;;;;;;3.50;99.90;;;;;;5123875;28;19926;-70
2024/01/05 08:00:25;;;;;;;;;;;3.60;99.90;;;;;;5125529;28;19970;-70
2024/01/05 08:02:52;;;;;;;;;;;3.60;99.90;;;;;;5124984;28;19919;-70
2024/01/05 08:05:19;;;;;;;;;;;3.60;99.90;;;;;;5124969;28;19920;-70
2024/01/05 08:07:47;;;;;;;;;;;3.60;99.90;;;;;;5119349;28;19947;-70
2024/01/05 08:10:13;;;;;;;;;;;3.60;99.90;;;;;;5124843;28;19987;-70
2024/01/05 08:12:40;;;;;;;;;;;3.60;99.90;;;;;;5124652;28;20268;-69
2024/01/05 08:15:07;;;;;;;;;;;3.60;99.90;;;;;;5124321;28;19983;-69
2024/01/05 08:17:34;;;;;;;;;;;3.60;99.90;;;;;;5124689;28;20117;-70
2024/01/05 08:20:01;;;;;;;;;;;3.70;99.90;;;;;;5126357;27;19967;-71
2024/01/05 08:22:27;;;;;;;;;;;3.70;99.90;;;;;;5130196;27;19920;-70
2024/01/05 08:24:55;;;;;;;;;;;3.70;99.90;;;;;;5133614;27;19926;-71
2024/01/05 08:27:22;;;;;;;;;;;3.70;99.90;;;;;;5122231;28;19955;-70
2024/01/05 08:29:48;;;;;;;;;;;3.80;99.90;;;;;;5131661;27;19935;-70
2024/01/05 08:32:15;;;;;;;;;;;3.80;99.90;;;;;;5125543;27;19926;-70
2024/01/05 08:34:42;;;;;;;;;;;3.80;99.90;;;;;;5127245;27;20233;-70
2024/01/05 08:37:08;;;;;;;;;;;3.90;99.90;;;;;;5128461;27;19920;-70
2024/01/05 08:39:35;;;;;;;;;;;3.90;99.90;;;;;;5127356;27;20007;-70
2024/01/05 08:42:04;;;;;;;;;;;3.90;99.90;;;;;;5124273;27;19990;-70
2024/01/05 08:44:30;;;;;;;;;;;3.90;99.90;;;;;;5124610;27;19951;-70
2024/01/05 08:46:57;;;;;;;;;;;3.90;99.90;;;;;;5130058;27;19920;-70
2024/01/05 08:49:24;;;;;;;;;;;4.00;99.90;;;;;;5130131;27;19919;-71
2024/01/05 08:51:51;;;;;;;;;;;4.00;99.90;;;;;;5131681;27;20178;-70
2024/01/05 08:54:17;;;;;;;;;;;4.00;99.90;;;;;;5123565;28;19947;-71
2024/01/05 08:56:44;;;;;;;;;;;4.00;99.90;;;;;;5127206;27;19982;-70
2024/01/05 08:59:12;;;;;;;;;;;4.10;99.90;;;;;;5128303;27;19919;-71
2024/01/05 09:01:39;;;;;;;;;;;4.20;99.90;;;;;;5122178;27;21105;-71
2024/01/05 09:04:06;;;;;;;;;;;4.20;99.90;;;;;;5128357;27;20015;-70
2024/01/05 09:06:33;;;;;;;;;;;4.30;99.90;;;;;;5112750;28;20139;-71
2024/01/05 09:08:59;;;;;;;;;;;4.30;99.90;;;;;;5111749;28;19995;-69
2024/01/05 09:11:26;;;;;;;;;;;4.40;99.90;;;;;;5113122;28;19938;-71
2024/01/05 09:13:53;;;;;;;;;;;4.50;99.90;;;;;;5119234;28;19920;-70
2024/01/05 09:16:21;;;;;;;;;;;4.50;99.90;;;;;;5112368;28;19950;-71
2024/01/05 09:18:47;;;;;;;;;;;4.60;99.90;;;;;;5113871;28;19995;-71
2024/01/05 09:21:14;;;;;;;;;;;4.70;99.90;;;;;;5120602;28;20264;-71
2024/01/05 09:23:41;;;;;;;;;;;4.80;99.90;;;;;;5120869;28;19920;-72
2024/01/05 09:26:12;;;;;;;;;;;4.80;99.90;;;;;;5112769;28;19928;-72
2024/01/05 09:28:39;;;;;;;;;;;4.90;99.90;;;;;;5112356;28;20121;-73
2024/01/05 09:31:05;;;;;;;;;;;4.90;99.90;;;;;;5113494;28;20000;-72
2024/01/05 09:33:33;;;;;;;;;;;5.00;99.90;;;;;;5112585;28;19920;-71
2024/01/05 09:36:00;;;;;;;;;;;5.00;99.90;;;;;;5112092;28;20909;-71
2024/01/05 09:38:27;;;;;;;;;;;5.10;99.90;;;;;;5112071;28;19955;-73
2024/01/05 09:40:55;;;;;;;;;;;5.10;99.90;;;;;;5113303;28;19926;-72
2024/01/05 09:43:22;;;;;;;;;;;5.10;99.90;;;;;;5116380;28;19961;-71
2024/01/05 09:45:50;;;;;;;;;;;5.10;99.90;;;;;;5121291;28;19982;-72
2024/01/05 09:48:18;;;;;;;;;;;5.20;99.90;;;;;;5123397;28;19982;-71
2024/01/05 09:50:48;;;;;;;;;;;5.20;99.90;;;;;;5123369;28;19982;-71
2024/01/05 09:53:16;;;;;;;;;;;5.30;99.90;;;;;;5122704;28;20330;-72
2024/01/05 09:55:43;;;;;;;;;;;5.30;99.90;;;;;;5123510;28;19965;-72
2024/01/05 09:58:09;;;;;;;;;;;5.30;99.90;;;;;;5121474;28;20045;-71
2024/01/05 10:00:36;;;;;;;;;;;5.30;99.90;;;;;;5123223;28;20142;-71
2024/01/05 10:03:07;;;;;;;;;;;5.40;99.90;;;;;;5114878;28;19986;-72
2024/01/05 10:05:34;;;;;;;;;;;5.40;99.90;;;;;;5122823;28;20224;-70
2024/01/05 10:08:04;;;;;;;;;;;5.50;99.90;;;;;;5121276;28;19920;-71
2024/01/05 10:10:44;;;;;;;;;;;5.50;99.90;;;;;;5122011;28;19958;-71
2024/01/05 10:13:11;;;;;;;;;;;5.50;99.90;;;;;;5121402;28;19983;-77
2024/01/05 10:15:51;;;;;;;;;;;5.60;99.90;;;;;;5116365;28;19920;-75
2024/01/05 10:18:18;;;;;;;;;;;5.60;99.90;;;;;;5122512;28;20233;-70
2024/01/05 10:20:44;;;;;;;;;;;5.70;99.90;;;;;;5123990;28;19927;-71
2024/01/05 10:23:13;;;;;;;;;;;5.80;99.90;;;;;;5124422;28;20166;-70
2024/01/05 10:25:40;;;;;;;;;;;5.90;99.90;;;;;;5113297;28;19920;-70
2024/01/05 10:28:20;;;;;;;;;;;5.90;99.90;;;;;;5119674;28;19951;-70
2024/01/05 10:30:46;;;;;;;;;;;5.90;99.90;;;;;;5120280;28;19947;-70
2024/01/05 10:33:13;;;;;;;;;;;5.90;99.90;;;;;;5120092;28;19927;-69
2024/01/05 10:35:40;;;;;;;;;;;5.90;99.90;;;;;;5123646;28;19920;-70
2024/01/05 10:38:08;;;;;;;;;;;5.90;99.90;;;;;;5126407;28;19926;-70
2024/01/05 10:40:36;;;;;;;;;;;5.90;99.90;;;;;;5119501;28;19955;-71
2024/01/05 10:43:09;;;;;;;;;;;5.90;99.90;;;;;;5115456;28;19991;-71
2024/01/05 10:45:37;;;;;;;;;;;6.00;99.90;;;;;;5115907;28;19934;-72
2024/01/05 10:48:04;;;;;;;;;;;5.90;99.90;;;;;;5133172;27;19954;-72
2024/01/05 10:50:32;;;;;;;;;;;5.90;99.90;;;;;;5132546;27;20157;-72
2024/01/05 10:53:00;;;;;;;;;;;6.00;99.90;;;;;;5134473;27;19957;-72
2024/01/05 10:55:27;;;;;;;;;;;6.00;99.90;;;;;;5132562;27;20094;-72
2024/01/05 10:57:55;;;;;;;;;;;6.00;99.90;;;;;;5131882;27;19919;-72
2024/01/05 11:00:24;;;;;;;;;;;6.10;99.90;;;;;;5132883;27;19920;-72
2024/01/05 11:02:51;;;;;;;;;;;6.10;99.90;;;;;;5129921;27;19931;-72
2024/01/05 11:05:18;;;;;;;;;;;6.10;99.90;;;;;;5133888;27;19994;-72
2024/01/05 11:07:45;;;;;;;;;;;6.10;99.90;;;;;;5133043;27;19973;-72
2024/01/05 11:10:18;;;;;;;;;;;6.10;99.90;;;;;;5129319;27;19958;-72
2024/01/05 11:12:50;;;;;;;;;;;6.10;99.90;;;;;;5131072;27;19987;-72
2024/01/05 11:15:27;;;;;;;;;;;6.20;99.90;;;;;;5129212;27;19926;-72
2024/01/05 11:18:05;;;;;;;;;;;6.30;99.90;;;;;;5130201;27;21242;-72
2024/01/05 11:20:39;;;;;;;;;;;6.30;99.90;;;;;;5132406;27;19926;-72
2024/01/05 11:23:08;;;;;;;;;;;6.40;99.90;;;;;;5132935;27;19924;-72
2024/01/05 11:25:35;;;;;;;;;;;6.40;99.90;;;;;;5134050;27;20213;-73
2024/01/05 11:28:02;;;;;;;;;;;6.60;99.90;;;;;;5133076;27;19944;-72
2024/01/05 11:30:44;;;;;;;;;;;6.70;99.90;;;;;;5133409;27;19955;-72
2024/01/05 11:33:39;;;;;;;;;;;6.80;99.90;;;;;;5124502;27;19920;-72
2024/01/05 11:36:06;;;;;;;;;;;7.00;99.90;;;;;;5121697;27;20011;-69
2024/01/05 11:38:33;;;;;;;;;;;7.20;99.90;;;;;;5124653;28;19920;-69
2024/01/05 11:41:00;;;;;;;;;;;7.30;99.90;;;;;;5120420;27;19938;-68
2024/01/05 11:43:35;;;;;;;;;;;7.40;99.90;;;;;;5122381;27;19995;-69
2024/01/05 11:46:03;;;;;;;;;;;7.50;99.90;;;;;;5131059;27;19923;-70
2024/01/05 11:48:45;;;;;;;;;;;7.60;99.90;;;;;;5131159;27;20248;-70
2024/01/05 11:51:13;;;;;;;;;;;7.60;99.90;;;;;;5121992;27;19919;-69
2024/01/05 11:53:40;;;;;;;;;;;7.70;99.90;;;;;;5126530;27;19926;-69
2024/01/05 11:56:07;;;;;;;;;;;7.70;99.90;;;;;;5130118;27;20419;-69
2024/01/05 11:58:35;;;;;;;;;;;7.60;99.90;;;;;;5134606;27;19919;-69
2024/01/05 12:01:04;;;;;;;;;;;7.70;99.90;;;;;;5125264;28;20149;-69
2024/01/05 12:03:30;;;;;;;;;;;7.60;99.90;;;;;;5129751;27;19990;-69
2024/01/05 12:05:58;;;;;;;;;;;7.60;99.90;;;;;;5118789;27;19927;-69
2024/01/05 12:08:24;;;;;;;;;;;7.60;99.90;;;;;;5131095;27;19955;-69
2024/01/05 12:10:52;;;;;;;;;;;7.60;99.90;;;;;;5126557;27;19947;-70
2024/01/05 12:13:22;;;;;;;;;;;7.60;99.90;;;;;;5132379;27;19949;-68
2024/01/05 12:15:52;;;;;;;;;;;7.60;99.90;;;;;;5132665;27;19955;-69
2024/01/05 12:18:25;;;;;;;;;;;7.60;99.90;;;;;;5126583;27;19934;-69
2024/01/05 12:20:54;;;;;;;;;;;7.60;99.90;;;;;;5126854;27;19928;-69
2024/01/05 12:23:20;;;;;;;;;;;7.60;99.90;;;;;;5127296;27;19943;-69
2024/01/05 12:25:57;;;;;;;;;;;7.60;99.90;;;;;;5129525;27;20232;-69
2024/01/05 12:28:23;;;;;;;;;;;7.50;99.90;;;;;;5130872;27;19923;-69
2024/01/05 12:30:50;;;;;;;;;;;7.60;99.90;;;;;;5126157;27;20059;-69
2024/01/05 12:33:17;;;;;;;;;;;7.50;99.90;;;;;;5128717;27;20000;-69
2024/01/05 12:35:45;;;;;;;;;;;7.50;99.90;;;;;;5124968;27;20161;-69
2024/01/05 12:38:12;;;;;;;;;;;7.50;99.90;;;;;;5128194;27;19954;-69
2024/01/05 12:40:39;;;;;;;;;;;7.50;99.90;;;;;;5128693;27;19920;-71
2024/01/05 12:43:11;;;;;;;;;;;7.50;99.90;;;;;;5129425;27;19926;-69
2024/01/05 12:45:38;;;;;;;;;;;7.50;99.90;;;;;;5124164;28;19958;-69
2024/01/05 12:48:10;;;;;;;;;;;7.50;99.90;;;;;;5126770;27;19947;-69
2024/01/05 12:50:36;;;;;;;;;;;7.50;99.90;;;;;;5122527;27;19995;-69
2024/01/05 12:53:16;;;;;;;;;;;7.50;99.90;;;;;;5128857;27;19958;-69
2024/01/05 12:55:42;;;;;;;;;;;7.50;99.90;;;;;;5127953;27;20178;-69
2024/01/05 12:58:09;;;;;;;;;;;7.50;99.90;;;;;;5127933;27;20083;-69
2024/01/05 13:00:40;;;;;;;;;;;7.50;99.90;;;;;;5129732;27;19934;-70
2024/01/05 13:03:08;;;;;;;;;;;7.50;99.90;;;;;;5129436;27;20149;-69
2024/01/05 13:05:34;;;;;;;;;;;7.40;99.90;;;;;;5113156;27;19920;-69
2024/01/05 13:08:02;;;;;;;;;;;7.50;99.90;;;;;;5126022;27;19926;-69
2024/01/05 13:10:30;;;;;;;;;;;7.40;99.90;;;;;;5126617;27;20281;-70
2024/01/05 13:12:57;;;;;;;;;;;7.40;99.90;;;;;;5117094;27;19988;-69
2024/01/05 13:15:23;;;;;;;;;;;7.40;99.90;;;;;;5116107;27;19963;-69
2024/01/05 13:17:51;;;;;;;;;;;7.30;99.90;;;;;;5120619;27;19966;-69
2024/01/05 13:20:18;;;;;;;;;;;7.40;99.90;;;;;;5112737;27;19981;-69
2024/01/05 13:22:45;;;;;;;;;;;7.30;99.90;;;;;;5120257;27;19920;-69
2024/01/05 13:25:12;;;;;;;;;;;7.30;99.90;;;;;;5123591;28;19962;-69
2024/01/05 13:27:40;;;;;;;;;;;7.30;99.90;;;;;;5126195;28;20210;-69
2024/01/05 13:30:09;;;;;;;;;;;7.30;99.90;;;;;;5116671;28;19951;-69
2024/01/05 13:32:36;;;;;;;;;;;7.30;99.90;;;;;;5131406;28;20210;-70
2024/01/05 13:35:03;;;;;;;;;;;7.20;99.90;;;;;;5124663;28;19962;-69
2024/01/05 13:37:30;;;;;;;;;;;7.20;99.90;;;;;;5125173;28;20085;-69
2024/01/05 13:39:56;;;;;;;;;;;7.20;99.90;;;;;;5124001;28;20142;-69
2024/01/05 13:42:25;;;;;;;;;;;7.20;99.90;;;;;;5128385;28;19920;-69
2024/01/05 13:44:53;;;;;;;;;;;7.20;99.90;;;;;;5128922;28;20174;-68
2024/01/05 13:47:19;;;;;;;;;;;7.20;99.90;;;;;;5128918;28;20269;-70
2024/01/05 13:49:46;;;;;;;;;;;7.20;99.90;;;;;;5128138;28;19926;-69
2024/01/05 13:52:12;;;;;;;;;;;7.20;99.90;;;;;;5124638;28;19947;-72
2024/01/05 13:54:39;;;;;;;;;;;7.20;99.90;;;;;;5128111;27;20078;-69
2024/01/05 13:57:06;;;;;;;;;;;7.30;99.90;;;;;;5129055;27;19994;-69
2024/01/05 13:59:33;;;;;;;;;;;7.30;99.90;;;;;;5131407;27;19926;-68
2024/01/05 14:02:02;;;;;;;;;;;7.30;99.90;;;;;;5131245;27;19990;-69
2024/01/05 14:04:29;;;;;;;;;;;7.30;99.90;;;;;;5133893;27;19919;-69
2024/01/05 14:06:55;;;;;;;;;;;7.30;99.90;;;;;;5131980;27;19934;-69
2024/01/05 14:09:22;;;;;;;;;;;7.30;99.90;;;;;;5130442;27;19919;-69
2024/01/05 14:11:49;;;;;;;;;;;7.30;99.90;;;;;;5135024;27;19943;-69
2024/01/05 14:14:16;;;;;;;;;;;7.20;99.90;;;;;;5131996;27;19919;-69
2024/01/05 14:16:43;;;;;;;;;;;7.20;99.90;;;;;;5131303;27;19925;-69
2024/01/05 14:19:11;;;;;;;;;;;7.10;99.90;;;;;;5133435;27;19989;-68
2024/01/05 14:21:38;;;;;;;;;;;7.10;99.90;;;;;;5132783;27;19950;-69
2024/01/05 14:24:05;;;;;;;;;;;7.10;99.90;;;;;;5132190;27;19921;-69
2024/01/05 14:26:31;;;;;;;;;;;7.10;99.90;;;;;;5131919;27;19951;-69
2024/01/05 14:28:58;;;;;;;;;;;7.10;99.90;;;;;;5131970;27;19928;-69
2024/01/05 14:31:25;;;;;;;;;;;7.10;99.90;;;;;;5133784;27;19944;-69
2024/01/05 14:33:52;;;;;;;;;;;7.10;99.90;;;;;;5130444;27;19991;-69